createdAt,value
2023-04-15T00:03:45.049Z,9.81
2023-04-15T00:09:06.877Z,9.80
2023-04-15T00:14:28.837Z,9.77
2023-04-15T00:19:51.839Z,9.81
2023-04-15T00:25:13.850Z,9.80
2023-04-15T00:30:42.888Z,9.78
2023-04-15T00:36:05.856Z,9.80
2023-04-15T00:41:27.859Z,9.81
2023-04-15T00:46:51.832Z,9.80
2023-04-15T00:52:13.841Z,9.70
2023-04-15T00:57:35.849Z,9.64
2023-04-15T01:02:57.987Z,9.63
2023-04-15T01:08:19.855Z,9.61
2023-04-15T01:13:41.856Z,9.59
2023-04-15T01:19:03.822Z,9.57
2023-04-15T01:24:26.824Z,9.53
2023-04-15T01:29:55.830Z,9.53
2023-04-15T01:35:19.865Z,9.50
2023-04-15T01:40:41.854Z,9.49
2023-04-15T01:46:03.834Z,9.52
2023-04-15T01:51:25.810Z,9.55
2023-04-15T01:56:47.845Z,9.57
2023-04-15T02:02:09.877Z,9.58
2023-04-15T02:07:31.835Z,9.56
2023-04-15T02:12:53.840Z,9.50
2023-04-15T02:18:16.822Z,9.50
2023-04-15T02:23:38.818Z,9.53
2023-04-15T02:29:01.906Z,9.55
2023-04-15T02:34:23.842Z,9.49
2023-04-15T02:39:45.818Z,9.52
2023-04-15T02:45:07.842Z,9.51
2023-04-15T02:50:31.807Z,9.50
2023-04-15T02:55:53.802Z,9.45
2023-04-15T03:01:15.853Z,9.46
2023-04-15T03:06:37.819Z,9.44
2023-04-15T03:12:00.814Z,9.43
2023-04-15T03:17:22.873Z,9.39
2023-04-15T03:22:44.798Z,9.36
2023-04-15T03:28:08.818Z,9.38
2023-04-15T03:33:30.809Z,9.38
2023-04-15T03:38:52.804Z,9.33
2023-04-15T03:44:14.803Z,9.33
2023-04-15T03:49:36.780Z,9.29
2023-04-15T03:54:58.789Z,9.25
2023-04-15T04:00:22.787Z,9.23
2023-04-15T04:05:45.797Z,9.16
2023-04-15T04:11:07.805Z,9.13
2023-04-15T04:16:29.935Z,9.11
2023-04-15T04:21:51.781Z,9.11
2023-04-15T04:27:13.778Z,9.09
2023-04-15T04:32:50.876Z,9.11
2023-04-15T04:38:12.785Z,9.07
2023-04-15T04:43:34.786Z,9.08
2023-04-15T04:48:56.810Z,8.99
2023-04-15T04:54:18.759Z,9.03
2023-04-15T04:59:40.772Z,9.07
2023-04-15T05:05:02.768Z,9.06
2023-04-15T05:10:24.774Z,9.02
2023-04-15T05:15:47.823Z,8.98
2023-04-15T05:21:09.784Z,8.97
2023-04-15T05:26:31.772Z,8.94
2023-04-15T05:32:00.784Z,8.96
2023-04-15T05:37:22.801Z,8.85
2023-04-15T05:42:44.772Z,8.80
2023-04-15T05:48:06.762Z,8.57
2023-04-15T05:53:28.790Z,8.56
2023-04-15T05:58:52.453Z,8.54
2023-04-15T06:04:15.842Z,8.31
2023-04-15T06:09:37.760Z,8.23
2023-04-15T06:15:00.208Z,8.15
2023-04-15T06:20:21.777Z,8.16
2023-04-15T06:25:43.776Z,8.07
2023-04-15T06:31:05.742Z,8.01
2023-04-15T06:36:27.754Z,7.97
2023-04-15T06:41:49.773Z,7.98
2023-04-15T06:47:11.750Z,7.99
2023-04-15T06:52:33.757Z,7.92
2023-04-15T06:57:55.741Z,7.95
2023-04-15T07:03:19.771Z,8.08
2023-04-15T07:08:41.733Z,8.03
2023-04-15T07:14:04.770Z,8.10
2023-04-15T07:19:26.736Z,8.08
2023-04-15T07:24:48.738Z,8.11
2023-04-15T07:30:10.720Z,8.10
2023-04-15T07:35:32.723Z,8.09
2023-04-15T07:40:54.731Z,8.10
2023-04-15T07:46:16.793Z,8.08
2023-04-15T07:51:38.741Z,8.19
2023-04-15T07:57:00.709Z,8.21
2023-04-15T08:02:22.910Z,8.30
2023-04-15T08:07:44.734Z,8.34
2023-04-15T08:13:07.726Z,8.44
2023-04-15T08:18:29.716Z,8.51
2023-04-15T08:23:51.720Z,8.48
2023-04-15T08:29:13.717Z,8.46
2023-04-15T08:34:35.722Z,8.48
2023-04-15T08:39:57.717Z,8.50
2023-04-15T08:45:22.704Z,8.47
2023-04-15T08:50:44.710Z,8.37
2023-04-15T08:56:10.715Z,8.48
2023-04-15T09:01:33.830Z,8.52
2023-04-15T09:06:55.913Z,8.56
2023-04-15T09:12:18.704Z,8.51
2023-04-15T09:17:40.709Z,8.54
2023-04-15T09:23:02.704Z,8.54
2023-04-15T09:28:24.697Z,8.54
2023-04-15T09:34:04.379Z,8.59
2023-04-15T09:39:25.687Z,8.63
2023-04-15T09:44:47.690Z,8.63
2023-04-15T09:50:10.715Z,8.68
2023-04-15T09:55:32.696Z,8.71
2023-04-15T10:00:54.690Z,8.70
2023-04-15T10:06:16.687Z,8.61
2023-04-15T10:11:42.664Z,8.66
2023-04-15T10:17:07.668Z,8.70
2023-04-15T10:22:30.695Z,8.68
2023-04-15T10:27:54.668Z,8.73
2023-04-15T10:33:18.662Z,8.75
2023-04-15T10:38:51.669Z,8.71
2023-04-15T10:44:14.673Z,8.75
2023-04-15T10:49:36.663Z,8.87
2023-04-15T10:54:58.674Z,8.87
2023-04-15T11:00:27.684Z,8.93
2023-04-15T11:05:55.680Z,9.07
2023-04-15T11:11:17.645Z,9.16
2023-04-15T11:16:39.687Z,9.17
2023-04-15T11:22:01.654Z,9.41
2023-04-15T11:27:23.711Z,9.54
2023-04-15T11:32:48.752Z,9.72
2023-04-15T11:38:10.688Z,9.94
2023-04-15T11:43:33.662Z,10.04
2023-04-15T11:48:59.665Z,10.06
2023-04-15T11:54:25.659Z,10.08
2023-04-15T11:59:57.691Z,10.01
2023-04-15T12:05:20.776Z,9.98
2023-04-15T12:10:45.670Z,9.85
2023-04-15T12:16:07.692Z,9.91
2023-04-15T12:21:29.668Z,9.98
2023-04-15T12:26:52.655Z,9.96
2023-04-15T12:32:29.717Z,10.01
2023-04-15T12:37:51.649Z,10.01
2023-04-15T12:43:13.657Z,10.02
2023-04-15T12:48:35.650Z,9.98
2023-04-15T12:53:57.659Z,10.03
2023-04-15T12:59:19.645Z,10.05
2023-04-15T13:04:41.700Z,10.02
2023-04-15T13:10:03.669Z,10.00
2023-04-15T13:15:27.641Z,9.97
2023-04-15T13:20:49.630Z,9.94
2023-04-15T13:26:11.620Z,9.89
2023-04-15T13:31:40.647Z,9.94
2023-04-15T13:37:02.630Z,9.93
2023-04-15T13:42:24.632Z,9.95
2023-04-15T13:47:46.665Z,9.97
2023-04-15T13:53:08.629Z,10.03
2023-04-15T13:58:30.615Z,10.10
2023-04-15T14:03:52.759Z,10.15
2023-04-15T14:09:14.607Z,10.19
2023-04-15T14:14:36.606Z,10.24
2023-04-15T14:19:58.596Z,10.27
2023-04-15T14:25:32.743Z,10.25
2023-04-15T14:30:55.648Z,10.28
2023-04-15T14:36:17.639Z,10.26
2023-04-15T14:41:39.613Z,10.24
2023-04-15T14:47:02.587Z,10.28
2023-04-15T14:52:24.589Z,10.33
2023-04-15T14:57:46.612Z,10.35
2023-04-15T15:03:08.655Z,10.32
2023-04-15T15:08:30.624Z,10.34
2023-04-15T15:13:52.598Z,10.44
2023-04-15T15:19:14.597Z,10.50
2023-04-15T15:24:36.578Z,10.53
2023-04-15T15:29:58.634Z,10.54
2023-04-15T15:35:20.594Z,10.53
2023-04-15T15:40:42.616Z,10.45
2023-04-15T15:46:04.595Z,10.43
2023-04-15T15:51:26.573Z,10.48
2023-04-15T15:56:48.594Z,10.59
2023-04-15T16:02:10.668Z,10.59
2023-04-15T16:07:32.587Z,10.63
2023-04-15T16:12:54.587Z,10.67
2023-04-15T16:18:16.573Z,10.64
2023-04-15T16:23:38.649Z,10.62
2023-04-15T16:29:00.561Z,10.60
2023-04-15T16:34:22.574Z,10.59
2023-04-15T16:39:44.571Z,10.58
2023-04-15T16:45:06.583Z,10.59
2023-04-15T16:50:28.560Z,10.60
2023-04-15T16:55:50.556Z,10.59
2023-04-15T17:01:12.593Z,10.61
2023-04-15T17:06:34.571Z,10.62
2023-04-15T17:11:56.551Z,10.61
2023-04-15T17:17:19.573Z,10.57
2023-04-15T17:22:41.539Z,10.53
2023-04-15T17:28:03.537Z,10.52
2023-04-15T17:34:00.310Z,10.51
2023-04-15T17:39:15.088Z,10.55
2023-04-15T17:44:36.568Z,10.58
2023-04-15T17:49:58.565Z,10.59
2023-04-15T17:55:21.544Z,10.60
2023-04-15T18:00:43.561Z,10.63
2023-04-15T18:06:05.546Z,10.64
2023-04-15T18:11:27.558Z,10.64
2023-04-15T18:16:50.546Z,10.66
2023-04-15T18:22:13.552Z,10.67
2023-04-15T18:27:35.546Z,10.67
2023-04-15T18:32:57.574Z,10.67
2023-04-15T18:38:19.527Z,10.65
2023-04-15T18:43:41.547Z,10.68
2023-04-15T18:49:03.733Z,10.70
2023-04-15T18:54:25.535Z,10.68
2023-04-15T18:59:47.561Z,10.63
2023-04-15T19:05:10.520Z,10.63
2023-04-15T19:10:32.534Z,10.60
2023-04-15T19:15:54.526Z,10.59
2023-04-15T19:21:16.548Z,10.58
2023-04-15T19:26:38.529Z,10.59
2023-04-15T19:32:00.529Z,10.62
2023-04-15T19:37:22.529Z,10.61
2023-04-15T19:42:44.534Z,10.65
2023-04-15T19:48:06.578Z,10.65
2023-04-15T19:53:28.526Z,10.67
2023-04-15T19:58:53.527Z,10.63
2023-04-15T20:04:15.599Z,10.59
2023-04-15T20:09:37.520Z,10.58
2023-04-15T20:14:59.532Z,10.53
2023-04-15T20:20:21.524Z,10.50
2023-04-15T20:25:43.503Z,10.50
2023-04-15T20:31:07.553Z,10.52
2023-04-15T20:36:29.496Z,10.50
2023-04-15T20:41:51.509Z,10.51
2023-04-15T20:47:13.590Z,10.53
2023-04-15T20:52:35.520Z,10.54
2023-04-15T20:57:57.493Z,10.54
2023-04-15T21:03:19.752Z,10.54
2023-04-15T21:08:41.510Z,10.52
2023-04-15T21:14:03.492Z,10.52
2023-04-15T21:19:25.501Z,10.46
2023-04-15T21:24:47.516Z,10.40
2023-04-15T21:30:09.493Z,10.37
2023-04-15T21:35:31.478Z,10.33
2023-04-15T21:40:53.492Z,10.32
2023-04-15T21:46:23.124Z,10.32
2023-04-15T21:51:46.503Z,10.28
2023-04-15T21:57:08.482Z,10.28
2023-04-15T22:02:30.585Z,10.31
2023-04-15T22:07:52.478Z,10.37
2023-04-15T22:13:17.474Z,10.39
2023-04-15T22:18:39.467Z,10.40
2023-04-15T22:24:31.806Z,10.44
2023-04-15T22:29:44.481Z,10.49
2023-04-15T22:35:06.475Z,10.52
2023-04-15T22:40:28.474Z,10.56
2023-04-15T22:45:50.558Z,10.58
2023-04-15T22:51:12.503Z,10.61
2023-04-15T22:56:35.473Z,10.62
2023-04-15T23:01:57.536Z,10.61
2023-04-15T23:07:19.453Z,10.61
2023-04-15T23:12:41.441Z,10.61
2023-04-15T23:18:03.505Z,10.61
2023-04-15T23:23:25.462Z,10.64
2023-04-15T23:28:47.450Z,10.65
2023-04-15T23:34:16.435Z,10.66
2023-04-15T23:39:38.444Z,10.65
2023-04-15T23:45:00.468Z,10.66
2023-04-15T23:50:22.446Z,10.67
2023-04-15T23:55:44.448Z,10.67
